EST,Max TemperatureF,Mean TemperatureF,Min TemperatureF,Max Dew PointF,MeanDew PointF,Min DewpointF,Max Humidity, Mean Humidity, Min Humidity, Max Sea Level PressureIn, Mean Sea Level PressureIn, Min Sea Level PressureIn, Max VisibilityMiles, Mean VisibilityMiles, Min VisibilityMiles, Max Wind SpeedMPH, Mean Wind SpeedMPH, Max Gust SpeedMPH,PrecipitationIn, CloudCover, Events, WindDirDegrees
2012-11-1,69,55,41,39,20,-4,81,36,5,30.01,29.96,29.91,10,10,5,18,6,24,0.00,0,,296
2012-11-2,78,56,35,45,34,18,87,48,18,30.06,30.00,29.93,10,10,7,16,4,23,0.00,0,,277
2012-11-3,82,62,42,50,44,34,100,60,20,30.14,30.06,30.02,10,10,10,8,1,,0.00,0,,289
2012-11-4,84,68,53,59,51,41,100,59,23,30.06,30.01,29.94,10,10,7,20,5,25,0.00,0,Thunderstorm,281
2012-11-5,69,58,46,46,41,34,81,56,28,30.08,30.03,29.99,10,10,10,10,5,,0.00,1,Rain,33
2012-11-6,55,50,46,52,45,36,100,83,58,29.99,29.97,29.94,10,9,4,13,6,18,0.00,8,Rain,71
2012-11-7,55,48,41,48,42,36,100,82,58,30.04,29.97,29.90,10,10,2,10,1,,0.00,7,Rain,295
2012-11-8,64,50,37,45,39,32,100,77,30,30.20,30.14,30.05,10,10,7,8,2,,0.00,0,,326
2012-11-9,71,52,32,43,35,21,100,70,16,30.33,30.26,30.20,10,9,4,7,1,,0.00,0,,317
2012-11-10,75,54,33,43,36,23,100,69,14,30.39,30.34,30.29,10,9,5,7,0,,0.00,0,,169
2012-11-11,78,60,41,59,47,41,100,72,30,30.45,30.37,30.34,10,10,3,12,2,17,0.00,3,,117
2012-11-12,78,66,53,66,59,54,100,83,44,30.35,30.27,30.20,10,7,0,12,3,,0.00,4,Fog-Rain,167
2012-11-13,69,60,51,64,51,43,100,76,38,30.31,30.25,30.20,10,10,5,13,5,18,0.00,5,Rain,4
2012-11-14,53,50,46,48,44,41,100,77,62,30.38,30.31,30.27,10,7,2,12,8,17,0.00,8,Rain-Thunderstorm,58
2012-11-15,48,46,44,46,46,45,100,99,93,30.31,30.27,30.24,10,7,3,9,5,,0.00,8,Rain-Thunderstorm,23
2012-11-16,62,52,39,48,43,36,100,84,37,30.34,30.29,30.24,10,8,1,10,3,,0.00,4,,43
2012-11-17,62,50,39,43,35,28,100,65,27,30.41,30.36,30.32,10,9,1,15,5,24,0.00,0,,41
2012-11-18,66,55,44,46,39,30,72,55,40,30.37,30.32,30.27,10,10,10,14,5,20,0.00,4,,24
2012-11-19,64,58,53,52,47,41,77,65,56,30.29,30.24,30.18,10,10,10,12,5,,0.00,8,,18
2012-11-20,69,56,44,52,47,45,100,77,40,30.22,30.14,30.07,10,10,5,8,1,,0.00,3,,353
2012-11-21,69,54,39,52,41,30,100,73,23,30.18,30.13,30.09,10,9,1,10,1,18,0.00,0,,36
2012-11-22,69,53,37,43,35,23,100,67,20,30.29,30.22,30.17,10,10,10,7,1,,0.00,0,,33
2012-11-23,73,53,33,46,37,32,100,60,22,30.22,30.13,30.04,10,10,7,13,3,20,0.00,0,,274
2012-11-24,62,52,41,46,21,1,66,36,9,30.16,30.11,30.06,10,10,10,14,8,20,0.00,0,,324
2012-11-25,62,45,28,27,19,-2,80,50,7,30.23,30.16,30.11,10,10,7,7,1,,0.00,0,,285
2012-11-26,69,50,30,32,22,3,87,50,7,30.28,30.21,30.17,10,8,5,7,0,,0.00,0,,210
2012-11-27,55,47,39,54,44,32,100,82,44,30.24,30.19,30.14,10,9,0,8,1,,0.00,7,Fog-Rain,274
2012-11-28,57,47,37,54,47,37,100,92,59,30.40,30.32,30.21,10,7,2,9,4,,0.00,6,,353
2012-11-29,64,48,33,45,38,32,100,80,32,30.46,30.40,30.36,10,6,0,7,1,,0.00,3,Fog,96
2012-11-30,69,53,37,54,44,37,100,79,40,30.42,30.35,30.29,10,10,7,6,0,,0.00,4,,151